Time;durP1;ratioP1;P1;durP2;ratioP2;P2;SDS_P1;SDS_P2;PMS_P1;PMS_P2;Temp;Humidity;BMP_temperature;BMP_pressure;BME280_temperature;BME280_humidity;BME280_pressure;Samples;Min_cycle;Max_cycle;Signal;HPM_P1;HPM_P2
2023/04/02 00:01:16;;;;;;;1.80;1.57;;;10.10;99.90;;;;;;5008262;28;20837;-71
2023/04/02 00:03:44;;;;;;;1.63;1.53;;;10.00;99.90;;;;;;5033536;28;20459;-72
2023/04/02 00:06:53;;;;;;;1.50;1.40;;;10.10;99.90;;;;;;4991882;28;20988;-73
2023/04/02 00:09:14;;;;;;;1.90;1.60;;;10.00;99.90;;;;;;5028108;28;20520;-70
2023/04/02 00:11:49;;;;;;;1.20;1.10;;;10.00;99.90;;;;;;5014460;28;20871;-71
2023/04/02 00:14:28;;;;;;;2.20;1.60;;;10.10;99.90;;;;;;5058923;28;20295;-72
2023/04/02 00:16:55;;;;;;;1.87;1.77;;;10.10;99.90;;;;;;5011893;28;20456;-71
2023/04/02 00:19:34;;;;;;;1.20;1.20;;;10.10;99.90;;;;;;5006041;28;20462;-71
2023/04/02 00:22:01;;;;;;;1.30;1.20;;;10.20;99.90;;;;;;5030381;28;20478;-71
2023/04/02 00:24:27;;;;;;;2.13;1.93;;;10.20;99.90;;;;;;5012170;28;20958;-72
2023/04/02 00:26:54;;;;;;;2.90;1.40;;;10.20;99.90;;;;;;5047745;28;20467;-70
2023/04/02 00:29:20;;;;;;;2.13;1.97;;;10.10;99.90;;;;;;5048832;28;20235;-71
2023/04/02 00:31:57;;;;;;;3.20;1.80;;;10.10;99.90;;;;;;5013098;28;20530;-71
2023/04/02 00:34:36;;;;;;;1.73;1.50;;;10.10;99.90;;;;;;5009930;28;20535;-72
2023/04/02 00:37:03;;;;;;;1.70;1.40;;;10.10;99.90;;;;;;5047820;28;20463;-68
2023/04/02 00:39:38;;;;;;;1.50;1.40;;;10.10;99.90;;;;;;5016914;28;20461;-71
2023/04/02 00:42:03;;;;;;;1.77;1.57;;;10.10;99.90;;;;;;5044490;28;20459;-71
2023/04/02 00:44:41;;;;;;;1.70;1.60;;;10.10;99.90;;;;;;5029728;28;20521;-71
2023/04/02 00:47:25;;;;;;;1.40;1.30;;;10.00;99.90;;;;;;5061806;28;20496;-71
2023/04/02 00:50:13;;;;;;;2.20;2.00;;;10.10;99.90;;;;;;5057206;28;20450;-70
2023/04/02 00:52:41;;;;;;;2.40;1.77;;;10.10;99.90;;;;;;5042844;28;20558;-71
2023/04/02 00:55:15;;;;;;;1.80;1.70;;;10.10;99.90;;;;;;5008990;28;20448;-69
2023/04/02 00:57:43;;;;;;;1.10;1.07;;;10.10;99.90;;;;;;5013425;28;20465;-71
2023/04/02 01:00:12;;;;;;;1.30;1.20;;;10.10;99.90;;;;;;4992505;28;20460;-71
2023/04/02 01:02:39;;;;;;;1.10;1.03;;;10.10;99.90;;;;;;5004567;28;20460;-68
2023/04/02 01:05:14;;;;;;;3.30;1.37;;;10.00;99.90;;;;;;5026436;28;20476;-70
2023/04/02 01:07:59;;;;;;;0.90;0.90;;;9.90;99.90;;;;;;5025547;28;20538;-71
2023/04/02 01:10:45;;;;;;;1.63;1.53;;;9.80;99.90;;;;;;5023238;28;20570;-70
2023/04/02 01:13:14;;;;;;;1.43;1.10;;;9.80;99.90;;;;;;5021086;28;20461;-70
2023/04/02 01:15:48;;;;;;;1.13;1.03;;;9.80;99.90;;;;;;5034798;28;20458;-70
2023/04/02 01:18:55;;;;;;;1.43;1.33;;;9.70;99.90;;;;;;5033914;28;20456;-70
2023/04/02 01:21:29;;;;;;;2.30;0.97;;;9.80;99.90;;;;;;5050174;28;20442;-71
2023/04/02 01:24:14;;;;;;;0.80;0.80;;;9.80;99.90;;;;;;5030404;28;20451;-70
2023/04/02 01:26:58;;;;;;;1.40;1.23;;;9.80;99.90;;;;;;5002274;28;20479;-70
2023/04/02 01:29:29;;;;;;;0.80;0.70;;;9.60;99.90;;;;;;5009740;28;20460;-70
2023/04/02 01:32:01;;;;;;;0.80;0.80;;;9.70;99.90;;;;;;5025696;28;20443;-71
2023/04/02 01:34:28;;;;;;;1.13;1.00;;;9.70;99.90;;;;;;5013703;28;20442;-71
2023/04/02 01:37:12;;;;;;;1.20;1.10;;;9.80;99.90;;;;;;5013048;28;20450;-72
2023/04/02 01:39:59;;;;;;;1.07;0.97;;;9.80;99.90;;;;;;5010113;28;20462;-70
2023/04/02 01:42:31;;;;;;;1.10;0.97;;;9.90;99.90;;;;;;5027472;28;20464;-71
2023/04/02 01:45:14;;;;;;;1.10;1.00;;;9.90;99.90;;;;;;5026408;28;20425;-70
2023/04/02 01:47:42;;;;;;;2.50;1.20;;;10.00;99.90;;;;;;5001825;28;20465;-71
2023/04/02 01:50:30;;;;;;;0.80;0.80;;;10.00;99.90;;;;;;5064213;28;20451;-71
2023/04/02 01:53:00;;;;;;;1.23;1.13;;;10.00;99.90;;;;;;4999924;28;20443;-71
2023/04/02 01:55:56;;;;;;;1.03;1.03;;;9.90;99.90;;;;;;5002024;28;20450;-71
2023/04/02 01:58:26;;;;;;;1.40;1.30;;;10.00;99.90;;;;;;4987535;28;20449;-71
2023/04/02 02:01:02;;;;;;;1.30;1.20;;;10.00;99.90;;;;;;5009352;28;20455;-71
2023/04/02 02:03:30;;;;;;;1.00;1.00;;;10.10;99.90;;;;;;4999472;28;20503;-72
2023/04/02 02:05:57;;;;;;;1.23;1.13;;;10.10;99.90;;;;;;5028183;28;20462;-72
2023/04/02 02:08:31;;;;;;;1.00;0.90;;;10.10;99.90;;;;;;4998434;28;20449;-71
2023/04/02 02:10:57;;;;;;;1.10;1.00;;;10.10;99.90;;;;;;4995612;28;20546;-71
2023/04/02 02:13:24;;;;;;;1.13;1.10;;;10.10;99.90;;;;;;4991549;28;20493;-71
2023/04/02 02:15:50;;;;;;;1.47;1.37;;;10.10;99.90;;;;;;5025278;28;20534;-72
2023/04/02 02:18:22;;;;;;;1.40;1.30;;;10.20;99.90;;;;;;5033430;28;20896;-70
2023/04/02 02:20:49;;;;;;;1.03;1.03;;;10.20;99.90;;;;;;5018728;28;20226;-71
2023/04/02 02:23:15;;;;;;;1.00;1.00;;;10.20;99.90;;;;;;5033666;28;20861;-71
2023/04/02 02:25:42;;;;;;;0.90;0.90;;;10.20;99.90;;;;;;5013472;28;20517;-71
2023/04/02 02:28:17;;;;;;;1.27;1.17;;;10.20;99.90;;;;;;5062418;28;21059;-71
2023/04/02 02:30:50;;;;;;;1.40;1.30;;;10.20;99.90;;;;;;5025530;28;20443;-71
2023/04/02 02:33:27;;;;;;;1.37;1.07;;;10.20;99.90;;;;;;5019731;28;20449;-70
2023/04/02 02:36:12;;;;;;;1.20;1.00;;;10.20;99.90;;;;;;5018131;28;20982;-71
2023/04/02 02:38:51;;;;;;;1.10;1.00;;;10.20;99.90;;;;;;5004683;28;20451;-72
2023/04/02 02:41:32;;;;;;;1.00;0.93;;;10.20;99.90;;;;;;5033520;28;20450;-72
2023/04/02 02:44:01;;;;;;;3.93;1.47;;;10.20;99.90;;;;;;5032889;28;20441;-70
2023/04/02 02:46:28;;;;;;;1.20;1.10;;;10.20;99.90;;;;;;5015987;28;20466;-71
2023/04/02 02:48:56;;;;;;;1.37;1.27;;;10.20;99.90;;;;;;5062998;28;20500;-71
2023/04/02 02:51:28;;;;;;;1.20;1.10;;;10.20;99.90;;;;;;5029240;28;20455;-70
2023/04/02 02:53:59;;;;;;;1.60;1.50;;;10.20;99.90;;;;;;5033206;28;20446;-70
2023/04/02 02:56:26;;;;;;;1.50;1.40;;;10.20;99.90;;;;;;5027101;28;20531;-70
2023/04/02 02:58:53;;;;;;;6.30;1.60;;;10.20;99.90;;;;;;5030446;28;20578;-70
2023/04/02 03:01:23;;;;;;;1.33;1.23;;;10.20;99.90;;;;;;5016280;28;20469;-71
2023/04/02 03:03:53;;;;;;;1.30;1.20;;;10.20;99.90;;;;;;5030260;28;20429;-70
2023/04/02 03:06:19;;;;;;;1.30;1.20;;;10.20;99.90;;;;;;5028129;28;20473;-71
2023/04/02 03:09:10;;;;;;;1.40;1.30;;;10.10;99.90;;;;;;5031888;28;20453;-71
2023/04/02 03:11:53;;;;;;;1.30;1.20;;;10.10;99.90;;;;;;5035982;28;20485;-68
2023/04/02 03:14:31;;;;;;;1.47;1.37;;;10.20;99.90;;;;;;5007680;28;20459;-71
2023/04/02 03:17:25;;;;;;;1.80;1.63;;;10.20;99.90;;;;;;5014829;28;20463;-69
2023/04/02 03:20:00;;;;;;;1.73;1.63;;;10.20;99.90;;;;;;5014066;28;20453;-72
2023/04/02 03:22:50;;;;;;;4.23;2.10;;;10.10;99.90;;;;;;5023071;28;20851;-70
2023/04/02 03:25:26;;;;;;;1.70;1.60;;;10.20;99.90;;;;;;4982030;28;20477;-71
2023/04/02 03:28:01;;;;;;;1.57;1.47;;;10.20;99.90;;;;;;5020793;28;20472;-71
2023/04/02 03:30:39;;;;;;;2.40;1.70;;;10.20;99.90;;;;;;5017905;28;20454;-71
2023/04/02 03:33:20;;;;;;;3.20;1.33;;;10.20;99.90;;;;;;5019307;28;20464;-72
2023/04/02 03:36:02;;;;;;;1.30;1.20;;;10.20;99.90;;;;;;5032150;28;20438;-70
2023/04/02 03:38:35;;;;;;;1.83;1.60;;;10.20;99.90;;;;;;5029732;28;20459;-71
2023/04/02 03:41:35;;;;;;;1.47;1.37;;;10.20;99.90;;;;;;5032542;28;20455;-70
2023/04/02 03:44:06;;;;;;;1.53;1.37;;;10.20;99.90;;;;;;5009263;28;20445;-70
2023/04/02 03:46:36;;;;;;;2.23;1.40;;;10.20;99.90;;;;;;5007428;28;21161;-71
2023/04/02 03:49:08;;;;;;;1.57;1.47;;;10.20;99.90;;;;;;5019103;28;20976;-70
2023/04/02 03:52:08;;;;;;;2.90;1.70;;;10.20;99.90;;;;;;5009625;28;20972;-71
2023/04/02 03:54:36;;;;;;;1.60;1.50;;;10.20;99.90;;;;;;5012922;28;20465;-71
2023/04/02 03:57:03;;;;;;;2.00;1.23;;;10.20;99.90;;;;;;5006457;28;20490;-69
2023/04/02 03:59:35;;;;;;;1.80;1.70;;;10.20;99.90;;;;;;5027095;28;20543;-71
2023/04/02 04:02:15;;;;;;;1.97;1.87;;;10.20;99.90;;;;;;5007883;28;20521;-71
2023/04/02 04:04:45;;;;;;;1.60;1.50;;;10.20;99.90;;;;;;5022023;28;20454;-70
2023/04/02 04:07:20;;;;;;;2.00;1.60;;;10.20;99.90;;;;;;5023514;28;20512;-71
2023/04/02 04:09:50;;;;;;;2.10;1.80;;;10.20;99.90;;;;;;5010751;28;20461;-72
2023/04/02 04:12:28;;;;;;;1.97;1.70;;;10.20;99.90;;;;;;5018226;28;20482;-71
2023/04/02 04:15:27;;;;;;;2.30;1.87;;;10.20;99.90;;;;;;5004039;28;20503;-70
2023/04/02 04:18:09;;;;;;;2.00;1.90;;;10.20;99.90;;;;;;5011285;28;20485;-69
2023/04/02 04:20:58;;;;;;;1.60;1.50;;;10.20;99.90;;;;;;5007190;28;20466;-69
2023/04/02 04:23:34;;;;;;;1.57;1.47;;;10.20;99.90;;;;;;5017431;28;20458;-70
2023/04/02 04:26:18;;;;;;;1.97;1.80;;;10.10;99.90;;;;;;5031256;28;20478;-70
2023/04/02 04:29:18;;;;;;;2.27;2.07;;;10.10;99.90;;;;;;5020596;28;20451;-70
2023/04/02 04:31:48;;;;;;;2.03;1.83;;;10.10;99.90;;;;;;5025108;28;20456;-70
2023/04/02 04:34:30;;;;;;;1.70;1.60;;;10.10;99.90;;;;;;5038342;28;20467;-69
2023/04/02 04:37:00;;;;;;;2.13;1.57;;;10.10;99.90;;;;;;5026013;28;20545;-70
2023/04/02 04:39:47;;;;;;;2.00;1.73;;;10.10;99.90;;;;;;5025016;28;20493;-71
2023/04/02 04:42:31;;;;;;;1.90;1.70;;;10.10;99.90;;;;;;5019266;28;20471;-69
2023/04/02 04:45:10;;;;;;;1.47;1.37;;;10.10;99.90;;;;;;5008157;28;20453;-69
2023/04/02 04:48:02;;;;;;;2.50;1.77;;;10.10;99.90;;;;;;5018220;28;20869;-69
2023/04/02 04:50:44;;;;;;;1.43;1.33;;;10.10;99.90;;;;;;5008008;28;20435;-69
2023/04/02 04:53:20;;;;;;;1.40;1.30;;;10.10;99.90;;;;;;5015951;28;20458;-69
2023/04/02 04:55:52;;;;;;;1.50;1.37;;;10.10;99.90;;;;;;5015361;28;20462;-69
2023/04/02 04:58:21;;;;;;;1.40;1.30;;;10.10;99.90;;;;;;5021429;28;20880;-69
2023/04/02 05:01:06;;;;;;;1.13;1.03;;;10.10;99.90;;;;;;5015658;28;20436;-70
2023/04/02 05:03:45;;;;;;;1.60;1.50;;;10.10;99.90;;;;;;5022715;28;20463;-69
2023/04/02 05:06:30;;;;;;;2.77;1.53;;;10.10;99.90;;;;;;5010177;28;20492;-70
2023/04/02 05:09:02;;;;;;;1.63;1.07;;;10.10;99.90;;;;;;5024861;28;20493;-71
2023/04/02 05:11:38;;;;;;;1.90;1.50;;;10.10;99.90;;;;;;5018543;28;20462;-72
2023/04/02 05:14:35;;;;;;;1.40;1.30;;;10.10;99.90;;;;;;5026390;28;20461;-70
2023/04/02 05:17:12;;;;;;;2.30;1.43;;;10.10;99.90;;;;;;5019962;28;20536;-68
2023/04/02 05:19:56;;;;;;;2.60;1.83;;;10.10;99.90;;;;;;5003660;28;20491;-69
2023/04/02 05:22:44;;;;;;;1.70;1.60;;;10.10;99.90;;;;;;5007858;28;20517;-69
2023/04/02 05:25:17;;;;;;;4.07;2.03;;;10.10;99.90;;;;;;5019503;28;20475;-70
2023/04/02 05:28:04;;;;;;;1.50;1.37;;;10.10;99.90;;;;;;5029157;28;20459;-69
2023/04/02 05:30:48;;;;;;;1.50;1.40;;;10.10;99.90;;;;;;5014138;28;20488;-68
2023/04/02 05:33:26;;;;;;;1.80;1.63;;;10.10;99.90;;;;;;5011411;28;20438;-69
2023/04/02 05:36:21;;;;;;;2.90;1.50;;;10.10;99.90;;;;;;5019787;28;20430;-70
2023/04/02 05:38:52;;;;;;;2.37;1.70;;;10.10;99.90;;;;;;5016635;28;20801;-70
2023/04/02 05:41:30;;;;;;;2.10;1.70;;;10.10;99.90;;;;;;5023222;28;20558;-70
2023/04/02 05:44:20;;;;;;;1.80;1.70;;;10.00;99.90;;;;;;5018566;28;20438;-69
2023/04/02 05:46:50;;;;;;;2.50;2.03;;;10.00;99.90;;;;;;5006640;28;20444;-71
2023/04/02 05:49:33;;;;;;;1.80;1.70;;;10.00;99.90;;;;;;5022114;28;20481;-69
2023/04/02 05:52:02;;;;;;;2.63;1.90;;;10.00;99.90;;;;;;5034337;28;20476;-68
2023/04/02 05:54:44;;;;;;;3.33;2.37;;;10.00;99.90;;;;;;5026894;28;20455;-69
2023/04/02 05:57:15;;;;;;;2.87;2.67;;;10.00;99.90;;;;;;5051546;28;20521;-70
2023/04/02 05:59:50;;;;;;;2.60;2.40;;;10.10;99.90;;;;;;5003329;28;20877;-68
2023/04/02 06:02:23;;;;;;;2.03;1.83;;;10.10;99.90;;;;;;5025795;28;20463;-68
2023/04/02 06:04:57;;;;;;;2.03;1.93;;;10.10;99.90;;;;;;5012448;28;20439;-70
2023/04/02 06:07:55;;;;;;;1.67;1.57;;;10.10;99.90;;;;;;5029967;28;20462;-70
2023/04/02 06:10:30;;;;;;;3.00;2.20;;;10.10;99.90;;;;;;5006641;28;20532;-70
2023/04/02 06:13:02;;;;;;;2.17;1.97;;;10.10;99.90;;;;;;5016619;28;20450;-71
2023/04/02 06:15:31;;;;;;;2.83;2.00;;;10.10;99.90;;;;;;5033735;28;20468;-69
2023/04/02 06:18:27;;;;;;;2.20;2.00;;;10.10;99.90;;;;;;5016758;28;20480;-69
2023/04/02 06:20:54;;;;;;;2.40;2.10;;;10.10;99.90;;;;;;5025795;28;20464;-68
2023/04/02 06:23:33;;;;;;;2.20;2.00;;;10.10;99.90;;;;;;5033728;28;20590;-70
2023/04/02 06:26:30;;;;;;;1.83;1.43;;;10.10;99.90;;;;;;5013804;28;20876;-70
2023/04/02 06:29:11;;;;;;;2.57;2.20;;;10.20;99.90;;;;;;5027228;28;20447;-71
2023/04/02 06:32:01;;;;;;;2.97;2.67;;;10.20;99.90;;;;;;5033365;28;20454;-69
2023/04/02 06:34:30;;;;;;;3.20;2.90;;;10.20;99.90;;;;;;5027332;28;20472;-70
2023/04/02 06:37:14;;;;;;;4.33;3.20;;;10.20;99.90;;;;;;5045275;28;20475;-68
2023/04/02 06:39:41;;;;;;;3.60;2.97;;;10.20;99.90;;;;;;5024324;28;20458;-69
2023/04/02 06:42:13;;;;;;;4.70;3.70;;;10.20;99.90;;;;;;5030031;28;20443;-69
2023/04/02 06:45:02;;;;;;;5.00;4.30;;;10.20;99.90;;;;;;5016091;28;20466;-70
2023/04/02 06:47:48;;;;;;;6.70;5.03;;;10.20;99.90;;;;;;5024401;28;20443;-70
2023/04/02 06:50:26;;;;;;;5.00;3.80;;;10.20;99.90;;;;;;5016802;28;20451;-71
2023/04/02 06:52:56;;;;;;;5.43;4.27;;;10.20;99.90;;;;;;5032424;28;20777;-70
2023/04/02 06:55:40;;;;;;;3.77;3.33;;;10.20;99.90;;;;;;5021426;28;20467;-69
2023/04/02 06:58:07;;;;;;;4.63;3.27;;;10.20;99.90;;;;;;5048973;28;20464;-71
2023/04/02 07:00:37;;;;;;;3.10;2.90;;;10.20;99.90;;;;;;5013447;28;20549;-71
2023/04/02 07:03:12;;;;;;;2.10;1.90;;;10.20;99.90;;;;;;5061301;28;20533;-71
2023/04/02 07:05:37;;;;;;;2.97;2.60;;;10.20;99.90;;;;;;5030531;28;20489;-72
2023/04/02 07:08:03;;;;;;;2.27;2.07;;;10.20;99.90;;;;;;5028780;28;20477;-71
2023/04/02 07:10:29;;;;;;;3.60;2.10;;;10.20;99.90;;;;;;5024529;28;20215;-70
2023/04/02 07:12:55;;;;;;;2.23;2.03;;;10.20;99.90;;;;;;4987920;28;20296;-71
2023/04/02 07:15:24;;;;;;;3.00;2.00;;;10.30;99.90;;;;;;5006597;28;20223;-71
2023/04/02 07:17:50;;;;;;;2.67;1.93;;;10.30;99.90;;;;;;5015052;28;20458;-71
2023/04/02 07:20:26;;;;;;;2.73;2.07;;;10.30;99.90;;;;;;5010329;28;20463;-71
2023/04/02 07:22:52;;;;;;;2.23;2.10;;;10.30;99.90;;;;;;4993369;28;20445;-73
2023/04/02 07:25:18;;;;;;;2.43;2.00;;;10.30;99.90;;;;;;5020370;28;20762;-71
2023/04/02 07:27:43;;;;;;;2.13;1.90;;;10.30;99.90;;;;;;5033885;28;21054;-71
2023/04/02 07:30:09;;;;;;;2.60;2.40;;;10.30;99.90;;;;;;5029010;28;20263;-70
2023/04/02 07:32:37;;;;;;;2.23;1.70;;;10.30;99.90;;;;;;5005625;28;20223;-72
2023/04/02 07:35:04;;;;;;;1.70;1.60;;;10.30;99.90;;;;;;5024974;28;20471;-73
2023/04/02 07:37:30;;;;;;;2.77;2.33;;;10.30;99.90;;;;;;5036902;28;20466;-71
2023/04/02 07:39:56;;;;;;;2.03;1.70;;;10.40;99.90;;;;;;5023082;28;20458;-71
2023/04/02 07:42:22;;;;;;;1.40;1.30;;;10.40;99.90;;;;;;5025011;28;20456;-70
2023/04/02 07:44:47;;;;;;;1.87;1.77;;;10.40;99.90;;;;;;5003642;28;20481;-69
2023/04/02 07:47:13;;;;;;;2.10;2.00;;;10.40;99.90;;;;;;5022941;28;20239;-71
2023/04/02 07:49:39;;;;;;;1.53;1.43;;;10.40;99.90;;;;;;5033834;28;20223;-71
2023/04/02 07:52:05;;;;;;;2.40;2.07;;;10.40;99.90;;;;;;5016924;28;20217;-69
2023/04/02 07:54:31;;;;;;;2.20;2.00;;;10.50;99.90;;;;;;5017918;28;20656;-71
2023/04/02 07:56:57;;;;;;;1.87;1.77;;;10.50;99.90;;;;;;5038618;28;20550;-69
2023/04/02 07:59:22;;;;;;;2.30;2.10;;;10.50;99.90;;;;;;5040316;28;20721;-71
2023/04/02 08:01:48;;;;;;;1.77;1.67;;;10.50;99.90;;;;;;5017115;28;20239;-70
2023/04/02 08:04:20;;;;;;;1.90;1.80;;;10.50;99.90;;;;;;5023960;28;20597;-70
2023/04/02 08:06:46;;;;;;;2.37;2.17;;;10.50;99.90;;;;;;5034989;28;20699;-71
2023/04/02 08:09:13;;;;;;;1.50;1.40;;;10.50;99.90;;;;;;5025755;28;20531;-69
2023/04/02 08:11:40;;;;;;;1.00;0.90;;;10.40;99.90;;;;;;5035169;28;20463;-68
2023/04/02 08:14:10;;;;;;;0.70;0.67;;;10.30;99.90;;;;;;5009298;28;20469;-69
2023/04/02 08:16:47;;;;;;;0.50;0.50;;;10.20;99.90;;;;;;5001850;28;20466;-70
2023/04/02 08:19:13;;;;;;;0.73;0.60;;;10.10;99.90;;;;;;5008060;28;20501;-69
2023/04/02 08:21:39;;;;;;;0.63;0.60;;;10.10;99.90;;;;;;5007062;28;21034;-68
2023/04/02 08:24:05;;;;;;;0.60;0.53;;;10.10;99.90;;;;;;5017566;28;20452;-71
2023/04/02 08:26:30;;;;;;;0.60;0.60;;;10.10;99.90;;;;;;5018133;28;20220;-71
2023/04/02 08:28:56;;;;;;;2.00;0.60;;;10.00;99.90;;;;;;5025394;28;20473;-71
2023/04/02 08:31:24;;;;;;;0.63;0.63;;;10.00;99.90;;;;;;5045103;28;20611;-71
2023/04/02 08:33:50;;;;;;;3.60;0.63;;;9.90;99.90;;;;;;5020960;28;20237;-71
2023/04/02 08:36:17;;;;;;;0.80;0.60;;;9.90;99.90;;;;;;5026229;28;20463;-71
2023/04/02 08:38:43;;;;;;;2.77;0.97;;;9.90;99.90;;;;;;5018658;28;20301;-69
2023/04/02 08:41:26;;;;;;;1.07;0.70;;;9.80;99.90;;;;;;5026851;28;20528;-71
2023/04/02 08:44:35;;;;;;;0.70;0.50;;;9.80;99.90;;;;;;5017095;28;20692;-71
2023/04/02 08:47:13;;;;;;;0.60;0.60;;;9.80;99.90;;;;;;5015201;28;20581;-71
2023/04/02 08:50:01;;;;;;;0.73;0.60;;;9.80;99.90;;;;;;5034442;28;20461;-70
2023/04/02 08:52:36;;;;;;;0.97;0.73;;;9.70;99.90;;;;;;5021534;28;20553;-70
2023/04/02 08:55:12;;;;;;;0.57;0.57;;;9.70;99.90;;;;;;5016047;28;20548;-70
2023/04/02 08:57:46;;;;;;;1.03;0.90;;;9.60;99.90;;;;;;5022352;28;20471;-71
2023/04/02 09:00:31;;;;;;;1.10;0.90;;;9.60;99.90;;;;;;5003082;28;20470;-69
2023/04/02 09:03:05;;;;;;;1.00;0.90;;;9.70;99.90;;;;;;5011661;28;20459;-68
2023/04/02 09:05:36;;;;;;;2.07;0.80;;;9.70;99.90;;;;;;5017412;28;20476;-69
2023/04/02 09:08:04;;;;;;;1.77;0.90;;;9.60;99.90;;;;;;5004849;28;20453;-70
2023/04/02 09:10:42;;;;;;;1.17;1.07;;;9.60;99.90;;;;;;5012671;28;20474;-70
2023/04/02 09:13:18;;;;;;;0.80;0.70;;;9.60;99.90;;;;;;5019050;28;20469;-69
2023/04/02 09:15:44;;;;;;;0.80;0.70;;;9.60;99.90;;;;;;5020372;28;20846;-70
2023/04/02 09:18:17;;;;;;;2.47;1.07;;;9.60;99.90;;;;;;5004800;28;20504;-70
2023/04/02 09:20:43;;;;;;;1.13;1.03;;;9.60;99.90;;;;;;5030831;28;20235;-70
2023/04/02 09:23:21;;;;;;;1.57;1.10;;;9.60;99.90;;;;;;5019772;28;20470;-71
2023/04/02 09:25:50;;;;;;;1.80;1.33;;;9.60;99.90;;;;;;5030500;28;20559;-70
2023/04/02 09:28:19;;;;;;;1.17;1.00;;;9.60;99.90;;;;;;5039405;28;20517;-70
2023/04/02 09:31:19;;;;;;;1.53;0.80;;;9.60;99.90;;;;;;5037327;28;20481;-71
2023/04/02 09:33:49;;;;;;;1.40;1.30;;;9.60;99.90;;;;;;5021742;28;20465;-71
2023/04/02 09:36:37;;;;;;;1.50;0.73;;;9.50;99.90;;;;;;5018978;28;20564;-70
2023/04/02 09:39:15;;;;;;;2.43;1.20;;;9.50;99.90;;;;;;5023207;28;20602;-71
2023/04/02 09:41:41;;;;;;;2.10;0.80;;;9.50;99.90;;;;;;5001409;28;20481;-70
2023/04/02 09:44:24;;;;;;;0.50;0.50;;;9.40;99.90;;;;;;5026182;28;20472;-71
2023/04/02 09:46:58;;;;;;;0.80;0.50;;;9.50;99.90;;;;;;5020997;28;20474;-71
2023/04/02 09:49:27;;;;;;;0.60;0.50;;;9.50;99.90;;;;;;5058311;28;20563;-71
2023/04/02 09:52:28;;;;;;;0.70;0.60;;;9.50;99.90;;;;;;5019418;28;20459;-70
2023/04/02 09:55:15;;;;;;;1.30;1.17;;;9.40;99.90;;;;;;5000461;28;20960;-70
2023/04/02 09:57:41;;;;;;;1.17;1.00;;;9.40;99.90;;;;;;5016445;28;20466;-71
2023/04/02 10:00:26;;;;;;;0.90;0.87;;;9.40;99.90;;;;;;5011424;28;20474;-71
2023/04/02 10:03:16;;;;;;;0.90;0.90;;;9.40;99.90;;;;;;5021727;28;20445;-71
2023/04/02 10:05:42;;;;;;;1.03;0.93;;;9.50;99.90;;;;;;5009019;28;20929;-70
2023/04/02 10:08:35;;;;;;;0.73;0.70;;;9.40;99.90;;;;;;5040205;28;20486;-70
2023/04/02 10:11:12;;;;;;;0.80;0.60;;;9.30;99.90;;;;;;5028845;28;21017;-71
2023/04/02 10:14:07;;;;;;;0.60;0.50;;;9.30;99.90;;;;;;5008905;28;20541;-71
2023/04/02 10:16:42;;;;;;;0.73;0.73;;;9.30;99.90;;;;;;5027615;28;20465;-69
2023/04/02 10:19:34;;;;;;;1.37;0.70;;;9.20;99.90;;;;;;5035758;28;20489;-71
2023/04/02 10:22:05;;;;;;;0.80;0.80;;;9.20;99.90;;;;;;5023154;28;20454;-71
2023/04/02 10:24:31;;;;;;;1.57;1.00;;;9.20;99.90;;;;;;5038067;28;20474;-71
2023/04/02 10:27:17;;;;;;;0.70;0.70;;;9.20;99.90;;;;;;5022190;28;20466;-70
2023/04/02 10:30:10;;;;;;;1.10;1.00;;;9.10;99.90;;;;;;5041422;28;20231;-71
2023/04/02 10:32:56;;;;;;;1.10;0.83;;;9.10;99.90;;;;;;5026477;28;20549;-70
2023/04/02 10:35:46;;;;;;;0.93;0.70;;;9.10;99.90;;;;;;5018165;28;20483;-71
2023/04/02 10:38:24;;;;;;;1.03;0.90;;;9.20;99.90;;;;;;5005027;28;20494;-70
2023/04/02 10:41:06;;;;;;;4.10;0.90;;;9.20;99.90;;;;;;5041629;28;20449;-69
2023/04/02 10:43:51;;;;;;;0.93;0.93;;;9.10;99.90;;;;;;5019023;28;20557;-70
2023/04/02 10:46:49;;;;;;;0.90;0.90;;;9.00;99.90;;;;;;5018588;28;20471;-70
2023/04/02 10:49:39;;;;;;;1.80;1.23;;;9.00;99.90;;;;;;5011618;28;20466;-70
2023/04/02 10:52:17;;;;;;;1.77;1.27;;;8.90;99.90;;;;;;5044072;28;20850;-72
2023/04/02 10:54:48;;;;;;;0.87;0.73;;;8.90;99.90;;;;;;5046966;28;20458;-69
2023/04/02 10:57:14;;;;;;;1.20;1.07;;;8.90;99.90;;;;;;5026536;28;20932;-69
2023/04/02 10:59:46;;;;;;;2.07;1.33;;;8.90;99.90;;;;;;5030638;28;20469;-68
2023/04/02 11:02:37;;;;;;;1.20;1.10;;;8.80;99.90;;;;;;5035714;28;20233;-69
2023/04/02 11:05:14;;;;;;;0.90;0.90;;;8.90;99.90;;;;;;5032235;28;20530;-68
2023/04/02 11:08:06;;;;;;;1.27;0.93;;;8.80;99.90;;;;;;5048235;28;20477;-68
2023/04/02 11:10:37;;;;;;;1.10;1.00;;;8.80;99.90;;;;;;4998959;28;20451;-69
2023/04/02 11:13:27;;;;;;;2.13;1.10;;;8.90;99.90;;;;;;5014730;28;20439;-70
2023/04/02 11:15:53;;;;;;;1.50;1.33;;;8.90;99.90;;;;;;5031840;28;20453;-69
2023/04/02 11:18:37;;;;;;;2.07;1.87;;;8.80;99.90;;;;;;5013563;28;20958;-68
2023/04/02 11:21:24;;;;;;;1.77;1.47;;;8.80;99.90;;;;;;5027114;28;20290;-69
2023/04/02 11:23:58;;;;;;;2.17;1.63;;;8.80;99.90;;;;;;5037853;28;20520;-70
2023/04/02 11:26:37;;;;;;;3.60;2.10;;;8.80;99.90;;;;;;5039765;28;20465;-69
2023/04/02 11:29:23;;;;;;;1.50;1.40;;;8.80;99.90;;;;;;5027328;28;20486;-69
2023/04/02 11:32:10;;;;;;;3.93;2.20;;;8.80;99.90;;;;;;5024127;28;20466;-70
2023/04/02 11:35:21;;;;;;;4.63;2.50;;;8.80;99.90;;;;;;5029754;28;20482;-69
2023/04/02 11:37:47;;;;;;;4.63;2.73;;;8.80;99.90;;;;;;5039856;28;20456;-71
2023/04/02 11:40:13;;;;;;;2.80;2.27;;;8.80;99.90;;;;;;5048906;28;20469;-70
2023/04/02 11:42:40;;;;;;;3.27;2.60;;;8.90;99.90;;;;;;5047938;28;20250;-70
2023/04/02 11:45:25;;;;;;;4.10;2.60;;;8.80;99.90;;;;;;5048558;28;20454;-69
2023/04/02 11:48:00;;;;;;;4.70;2.57;;;8.90;99.90;;;;;;5027075;28;20450;-70
2023/04/02 11:50:33;;;;;;;1.43;1.20;;;8.90;99.90;;;;;;5031512;28;20714;-70
2023/04/02 11:53:09;;;;;;;3.40;1.93;;;8.90;99.90;;;;;;5031115;28;20482;-68
2023/04/02 11:55:52;;;;;;;3.33;2.37;;;8.90;99.90;;;;;;5011876;28;20559;-69
2023/04/02 11:58:36;;;;;;;2.17;1.60;;;8.80;99.90;;;;;;5023154;28;20523;-69
2023/04/02 12:01:08;;;;;;;2.80;2.20;;;8.80;99.90;;;;;;5019441;28;20470;-70
2023/04/02 12:04:00;;;;;;;2.77;1.90;;;8.80;99.90;;;;;;5028832;28;20458;-69
2023/04/02 12:06:32;;;;;;;2.13;1.60;;;8.80;99.90;;;;;;5029903;28;20475;-70
2023/04/02 12:09:03;;;;;;;1.33;1.23;;;8.80;99.90;;;;;;5016516;28;20460;-69
2023/04/02 12:11:35;;;;;;;2.20;2.03;;;8.80;99.90;;;;;;5039711;28;20983;-69
2023/04/02 12:14:22;;;;;;;3.00;2.00;;;8.80;99.90;;;;;;5012021;28;20982;-70
2023/04/02 12:16:48;;;;;;;1.80;1.70;;;8.80;99.90;;;;;;5008491;28;20458;-68
2023/04/02 12:19:15;;;;;;;1.80;1.23;;;8.80;99.90;;;;;;5012634;28;20462;-70
2023/04/02 12:21:46;;;;;;;1.60;1.30;;;8.80;99.90;;;;;;5016261;28;20510;-69
2023/04/02 12:24:21;;;;;;;1.90;1.30;;;8.80;99.90;;;;;;5031577;28;20466;-71
2023/04/02 12:26:47;;;;;;;1.20;1.10;;;8.80;99.90;;;;;;5022290;28;20461;-70
2023/04/02 12:29:22;;;;;;;1.37;1.27;;;8.80;99.90;;;;;;5047702;28;20483;-70
2023/04/02 12:31:48;;;;;;;1.67;1.57;;;8.80;99.90;;;;;;5025053;28;20230;-70
2023/04/02 12:34:19;;;;;;;1.23;1.07;;;8.80;99.90;;;;;;5029961;28;20466;-69
2023/04/02 12:37:01;;;;;;;1.40;1.33;;;8.70;99.90;;;;;;5043761;28;20254;-69
2023/04/02 12:39:28;;;;;;;2.20;1.27;;;8.70;99.90;;;;;;5007239;28;20461;-72
2023/04/02 12:41:54;;;;;;;2.37;1.37;;;8.70;99.90;;;;;;5039854;28;20805;-70
2023/04/02 12:44:22;;;;;;;1.30;1.20;;;8.80;99.90;;;;;;5037833;28;20482;-68
2023/04/02 12:46:49;;;;;;;1.83;1.63;;;8.70;99.90;;;;;;5035208;28;20225;-70
2023/04/02 12:49:32;;;;;;;1.63;1.43;;;8.70;99.90;;;;;;4993177;28;20449;-71
2023/04/02 12:52:02;;;;;;;1.53;1.43;;;8.70;99.90;;;;;;5025107;28;20458;-69
2023/04/02 12:54:29;;;;;;;1.17;1.00;;;8.70;99.90;;;;;;5036879;28;20480;-70
2023/04/02 12:57:18;;;;;;;1.73;1.47;;;8.70;99.90;;;;;;5039206;28;20463;-70
2023/04/02 12:59:44;;;;;;;1.50;1.40;;;8.70;99.90;;;;;;5023971;28;20483;-69
2023/04/02 13:02:21;;;;;;;2.37;1.20;;;8.70;99.90;;;;;;5043234;28;20474;-67
2023/04/02 13:04:56;;;;;;;2.20;2.00;;;8.70;99.90;;;;;;5016021;28;20225;-69
2023/04/02 13:07:24;;;;;;;2.10;1.87;;;8.60;99.90;;;;;;5012116;28;20582;-70
2023/04/02 13:09:52;;;;;;;2.37;1.50;;;8.60;99.90;;;;;;5030348;28;20461;-71
2023/04/02 13:12:31;;;;;;;2.50;1.97;;;8.60;99.90;;;;;;5038873;28;20994;-71
2023/04/02 13:14:59;;;;;;;1.90;1.43;;;8.70;99.90;;;;;;5001726;28;21039;-70
2023/04/02 13:17:39;;;;;;;1.80;1.70;;;8.70;99.90;;;;;;5019353;28;20473;-70
2023/04/02 13:20:56;;;;;;;1.80;1.70;;;8.70;99.90;;;;;;5031799;28;20477;-71
2023/04/02 13:23:25;;;;;;;2.10;1.90;;;8.70;99.90;;;;;;4962404;28;21009;-71
2023/04/02 13:25:52;;;;;;;1.73;1.63;;;8.70;99.90;;;;;;4955809;28;20467;-70
2023/04/02 13:28:18;;;;;;;1.63;1.53;;;8.60;99.90;;;;;;5011964;28;20870;-70
2023/04/02 13:30:47;;;;;;;1.60;1.50;;;8.60;99.90;;;;;;5009659;28;20479;-70
2023/04/02 13:33:13;;;;;;;2.33;2.13;;;8.60;99.90;;;;;;5026071;28;20462;-70
2023/04/02 13:35:40;;;;;;;1.90;1.60;;;8.60;99.90;;;;;;5007718;28;20465;-71